sensor_id;sensor_type;location;lat;lon;timestamp;pressure;altitude;pressure_sealevel;temperature;humidity
59757;BME280;45631;51.962;5.974;2023-06-10T00:00:10;101326.66;;;20.66;89.91
59757;BME280;45631;51.962;5.974;2023-06-10T00:02:41;101336.34;;;20.67;90.14
59757;BME280;45631;51.962;5.974;2023-06-10T00:05:11;101331.09;;;20.57;91.07
59757;BME280;45631;51.962;5.974;2023-06-10T00:07:39;101331.63;;;20.61;91.03
59757;BME280;45631;51.962;5.974;2023-06-10T00:10:08;101337.44;;;20.56;90.86
59757;BME280;45631;51.962;5.974;2023-06-10T00:12:39;101336.22;;;20.51;91.96
59757;BME280;45631;51.962;5.974;2023-06-10T00:15:09;101334.69;;;20.48;92.18
59757;BME280;45631;51.962;5.974;2023-06-10T00:17:38;101339.50;;;20.44;92.38
59757;BME280;45631;51.962;5.974;2023-06-10T00:20:08;101336.28;;;20.41;92.54
59757;BME280;45631;51.962;5.974;2023-06-10T00:22:39;101344.44;;;20.39;92.18
59757;BME280;45631;51.962;5.974;2023-06-10T00:25:09;101342.22;;;20.53;92.00
59757;BME280;45631;51.962;5.974;2023-06-10T00:27:39;101339.09;;;20.39;91.84
59757;BME280;45631;51.962;5.974;2023-06-10T00:30:08;101331.41;;;20.36;91.44
59757;BME280;45631;51.962;5.974;2023-06-10T00:32:37;101337.50;;;20.29;91.36
59757;BME280;45631;51.962;5.974;2023-06-10T00:35:06;101340.31;;;20.27;91.03
59757;BME280;45631;51.962;5.974;2023-06-10T00:37:35;101339.34;;;20.28;90.57
59757;BME280;45631;51.962;5.974;2023-06-10T00:40:05;101338.50;;;20.27;90.59
59757;BME280;45631;51.962;5.974;2023-06-10T00:42:35;101343.06;;;20.17;91.00
59757;BME280;45631;51.962;5.974;2023-06-10T00:45:06;101338.47;;;20.09;91.34
59757;BME280;45631;51.962;5.974;2023-06-10T00:47:35;101341.44;;;20.06;90.81
59757;BME280;45631;51.962;5.974;2023-06-10T00:50:05;101345.41;;;20.02;90.60
59757;BME280;45631;51.962;5.974;2023-06-10T00:52:35;101347.25;;;20.02;90.31
59757;BME280;45631;51.962;5.974;2023-06-10T00:55:04;101344.19;;;19.97;90.02
59757;BME280;45631;51.962;5.974;2023-06-10T00:57:32;101345.47;;;19.92;89.68
59757;BME280;45631;51.962;5.974;2023-06-10T01:00:01;101352.84;;;19.99;89.67
59757;BME280;45631;51.962;5.974;2023-06-10T01:02:31;101348.59;;;19.88;89.14
59757;BME280;45631;51.962;5.974;2023-06-10T01:05:02;101343.09;;;19.89;88.47
59757;BME280;45631;51.962;5.974;2023-06-10T01:07:34;101344.53;;;19.84;88.22
59757;BME280;45631;51.962;5.974;2023-06-10T01:10:09;101346.19;;;19.85;87.55
59757;BME280;45631;51.962;5.974;2023-06-10T01:12:43;101345.41;;;19.74;87.43
59757;BME280;45631;51.962;5.974;2023-06-10T01:15:16;101335.56;;;19.75;87.42
59757;BME280;45631;51.962;5.974;2023-06-10T01:17:59;101343.00;;;19.71;87.56
59757;BME280;45631;51.962;5.974;2023-06-10T01:20:29;101346.56;;;19.62;86.84
59757;BME280;45631;51.962;5.974;2023-06-10T01:23:01;101342.78;;;19.65;87.26
59757;BME280;45631;51.962;5.974;2023-06-10T01:25:30;101349.63;;;19.67;86.68
59757;BME280;45631;51.962;5.974;2023-06-10T01:28:03;101350.06;;;19.63;86.85
59757;BME280;45631;51.962;5.974;2023-06-10T01:30:38;101350.78;;;19.55;86.93
59757;BME280;45631;51.962;5.974;2023-06-10T01:33:09;101351.09;;;19.52;86.69
59757;BME280;45631;51.962;5.974;2023-06-10T01:35:40;101346.50;;;19.44;86.90
59757;BME280;45631;51.962;5.974;2023-06-10T01:38:12;101354.25;;;19.37;87.58
59757;BME280;45631;51.962;5.974;2023-06-10T01:40:41;101350.06;;;19.35;87.16
59757;BME280;45631;51.962;5.974;2023-06-10T01:43:10;101354.25;;;19.28;87.22
59757;BME280;45631;51.962;5.974;2023-06-10T01:45:38;101357.63;;;19.30;87.17
59757;BME280;45631;51.962;5.974;2023-06-10T01:48:06;101366.91;;;19.25;87.08
59757;BME280;45631;51.962;5.974;2023-06-10T01:50:35;101353.31;;;19.19;86.89
59757;BME280;45631;51.962;5.974;2023-06-10T01:53:03;101356.66;;;19.21;86.95
59757;BME280;45631;51.962;5.974;2023-06-10T01:55:33;101362.84;;;19.21;87.11
59757;BME280;45631;51.962;5.974;2023-06-10T01:58:01;101359.22;;;19.13;87.15
59757;BME280;45631;51.962;5.974;2023-06-10T02:00:29;101357.97;;;19.07;88.30
59757;BME280;45631;51.962;5.974;2023-06-10T02:02:58;101356.28;;;19.06;87.44
59757;BME280;45631;51.962;5.974;2023-06-10T02:05:28;101358.81;;;18.98;88.05
59757;BME280;45631;51.962;5.974;2023-06-10T02:07:57;101362.34;;;18.98;88.25
59757;BME280;45631;51.962;5.974;2023-06-10T02:10:28;101364.00;;;18.89;88.96
59757;BME280;45631;51.962;5.974;2023-06-10T02:12:57;101359.09;;;18.85;88.76
59757;BME280;45631;51.962;5.974;2023-06-10T02:15:26;101350.53;;;18.81;89.17
59757;BME280;45631;51.962;5.974;2023-06-10T02:17:54;101361.47;;;18.78;90.00
59757;BME280;45631;51.962;5.974;2023-06-10T02:20:23;101368.22;;;18.72;90.61
59757;BME280;45631;51.962;5.974;2023-06-10T02:22:51;101365.84;;;18.69;91.57
59757;BME280;45631;51.962;5.974;2023-06-10T02:25:19;101361.63;;;18.67;91.73
59757;BME280;45631;51.962;5.974;2023-06-10T02:27:47;101367.09;;;18.65;92.16
59757;BME280;45631;51.962;5.974;2023-06-10T02:30:17;101362.16;;;18.61;93.00
59757;BME280;45631;51.962;5.974;2023-06-10T02:32:46;101365.56;;;18.63;93.42
59757;BME280;45631;51.962;5.974;2023-06-10T02:35:15;101367.50;;;18.61;94.17
59757;BME280;45631;51.962;5.974;2023-06-10T02:37:44;101363.88;;;18.62;94.21
59757;BME280;45631;51.962;5.974;2023-06-10T02:40:12;101370.31;;;18.59;94.87
59757;BME280;45631;51.962;5.974;2023-06-10T02:42:41;101378.31;;;18.59;95.43
59757;BME280;45631;51.962;5.974;2023-06-10T02:45:10;101372.81;;;18.51;95.95
59757;BME280;45631;51.962;5.974;2023-06-10T02:47:39;101374.66;;;18.50;96.03
59757;BME280;45631;51.962;5.974;2023-06-10T02:50:08;101369.88;;;18.44;96.76
59757;BME280;45631;51.962;5.974;2023-06-10T02:52:37;101373.13;;;18.48;96.84
59757;BME280;45631;51.962;5.974;2023-06-10T02:55:05;101366.38;;;18.44;97.39
59757;BME280;45631;51.962;5.974;2023-06-10T02:57:34;101373.94;;;18.38;98.07
59757;BME280;45631;51.962;5.974;2023-06-10T03:00:02;101370.69;;;18.35;98.69
59757;BME280;45631;51.962;5.974;2023-06-10T03:02:37;101371.13;;;18.30;99.43
59757;BME280;45631;51.962;5.974;2023-06-10T03:05:07;101375.47;;;18.31;99.90
59757;BME280;45631;51.962;5.974;2023-06-10T03:07:37;101370.16;;;18.31;100.00
59757;BME280;45631;51.962;5.974;2023-06-10T03:10:07;101373.34;;;18.25;100.00
59757;BME280;45631;51.962;5.974;2023-06-10T03:12:35;101377.56;;;18.18;100.00
59757;BME280;45631;51.962;5.974;2023-06-10T03:15:04;101382.28;;;18.14;100.00
59757;BME280;45631;51.962;5.974;2023-06-10T03:17:33;101374.44;;;18.13;100.00
59757;BME280;45631;51.962;5.974;2023-06-10T03:20:01;101378.66;;;18.15;100.00
59757;BME280;45631;51.962;5.974;2023-06-10T03:22:33;101375.97;;;18.05;100.00
59757;BME280;45631;51.962;5.974;2023-06-10T03:25:01;101380.34;;;18.06;100.00
59757;BME280;45631;51.962;5.974;2023-06-10T03:27:29;101375.25;;;18.03;100.00
59757;BME280;45631;51.962;5.974;2023-06-10T03:29:58;101375.81;;;17.97;100.00
59757;BME280;45631;51.962;5.974;2023-06-10T03:32:29;101382.38;;;17.93;100.00
59757;BME280;45631;51.962;5.974;2023-06-10T03:34:57;101378.28;;;17.89;100.00
59757;BME280;45631;51.962;5.974;2023-06-10T03:37:25;101382.75;;;17.88;100.00
59757;BME280;45631;51.962;5.974;2023-06-10T03:39:55;101386.28;;;17.89;100.00
59757;BME280;45631;51.962;5.974;2023-06-10T03:42:23;101386.41;;;17.87;100.00
59757;BME280;45631;51.962;5.974;2023-06-10T03:44:51;101383.84;;;17.86;100.00
59757;BME280;45631;51.962;5.974;2023-06-10T03:47:22;101391.16;;;17.84;100.00
59757;BME280;45631;51.962;5.974;2023-06-10T03:49:50;101393.06;;;17.82;100.00
59757;BME280;45631;51.962;5.974;2023-06-10T03:52:19;101388.03;;;17.79;100.00
59757;BME280;45631;51.962;5.974;2023-06-10T03:54:47;101394.06;;;17.81;100.00
59757;BME280;45631;51.962;5.974;2023-06-10T03:57:19;101397.84;;;17.78;100.00
59757;BME280;45631;51.962;5.974;2023-06-10T03:59:47;101388.03;;;17.79;100.00
59757;BME280;45631;51.962;5.974;2023-06-10T04:02:16;101392.53;;;17.78;100.00
59757;BME280;45631;51.962;5.974;2023-06-10T04:04:44;101397.41;;;17.73;100.00
59757;BME280;45631;51.962;5.974;2023-06-10T04:07:13;101396.56;;;17.72;100.00
59757;BME280;45631;51.962;5.974;2023-06-10T04:09:41;101394.88;;;17.71;100.00
59757;BME280;45631;51.962;5.974;2023-06-10T04:12:10;101403.31;;;17.77;100.00
59757;BME280;45631;51.962;5.974;2023-06-10T04:14:40;101399.22;;;17.72;100.00
59757;BME280;45631;51.962;5.974;2023-06-10T04:17:08;101402.84;;;17.71;100.00
59757;BME280;45631;51.962;5.974;2023-06-10T04:19:37;101391.34;;;17.71;100.00
59757;BME280;45631;51.962;5.974;2023-06-10T04:22:05;101402.13;;;17.69;100.00
59757;BME280;45631;51.962;5.974;2023-06-10T04:24:34;101404.78;;;17.69;100.00
59757;BME280;45631;51.962;5.974;2023-06-10T04:27:02;101408.16;;;17.71;100.00
59757;BME280;45631;51.962;5.974;2023-06-10T04:29:31;101403.81;;;17.70;100.00
59757;BME280;45631;51.962;5.974;2023-06-10T04:32:00;101416.16;;;17.71;100.00
59757;BME280;45631;51.962;5.974;2023-06-10T04:34:28;101408.16;;;17.71;100.00
59757;BME280;45631;51.962;5.974;2023-06-10T04:36:57;101412.78;;;17.69;100.00
59757;BME280;45631;51.962;5.974;2023-06-10T04:39:25;101420.59;;;17.71;100.00
59757;BME280;45631;51.962;5.974;2023-06-10T04:41:54;101423.28;;;17.71;100.00
59757;BME280;45631;51.962;5.974;2023-06-10T04:44:22;101426.19;;;17.68;100.00
59757;BME280;45631;51.962;5.974;2023-06-10T04:46:51;101413.50;;;17.71;100.00
59757;BME280;45631;51.962;5.974;2023-06-10T04:49:21;101419.13;;;17.78;100.00
59757;BME280;45631;51.962;5.974;2023-06-10T04:51:49;101418.72;;;17.83;100.00
59757;BME280;45631;51.962;5.974;2023-06-10T04:54:18;101420.13;;;17.87;100.00
59757;BME280;45631;51.962;5.974;2023-06-10T04:56:46;101427.75;;;17.92;100.00
59757;BME280;45631;51.962;5.974;2023-06-10T04:59:14;101416.22;;;17.91;100.00
59757;BME280;45631;51.962;5.974;2023-06-10T05:01:42;101430.69;;;17.98;100.00
59757;BME280;45631;51.962;5.974;2023-06-10T05:04:11;101431.56;;;17.99;100.00
59757;BME280;45631;51.962;5.974;2023-06-10T05:06:40;101431.00;;;18.05;100.00
59757;BME280;45631;51.962;5.974;2023-06-10T05:09:10;101431.88;;;18.05;100.00
59757;BME280;45631;51.962;5.974;2023-06-10T05:11:38;101433.59;;;18.16;100.00
59757;BME280;45631;51.962;5.974;2023-06-10T05:14:07;101429.69;;;18.20;100.00
59757;BME280;45631;51.962;5.974;2023-06-10T05:16:35;101423.25;;;18.23;100.00
59757;BME280;45631;51.962;5.974;2023-06-10T05:19:03;101428.97;;;18.28;100.00
59757;BME280;45631;51.962;5.974;2023-06-10T05:21:34;101424.66;;;18.37;100.00
59757;BME280;45631;51.962;5.974;2023-06-10T05:24:07;101423.97;;;18.45;100.00
59757;BME280;45631;51.962;5.974;2023-06-10T05:26:35;101431.28;;;18.52;100.00
59757;BME280;45631;51.962;5.974;2023-06-10T05:29:05;101430.75;;;18.58;100.00
59757;BME280;45631;51.962;5.974;2023-06-10T05:31:33;101429.19;;;18.66;100.00
59757;BME280;45631;51.962;5.974;2023-06-10T05:34:02;101435.78;;;18.71;100.00
59757;BME280;45631;51.962;5.974;2023-06-10T05:36:30;101429.47;;;18.82;100.00
59757;BME280;45631;51.962;5.974;2023-06-10T05:38:59;101429.81;;;18.89;100.00
59757;BME280;45631;51.962;5.974;2023-06-10T05:41:28;101435.41;;;18.96;100.00
59757;BME280;45631;51.962;5.974;2023-06-10T05:44:00;101437.38;;;19.03;100.00
59757;BME280;45631;51.962;5.974;2023-06-10T05:46:28;101437.91;;;19.17;100.00
59757;BME280;45631;51.962;5.974;2023-06-10T05:48:57;101433.00;;;19.22;100.00
59757;BME280;45631;51.962;5.974;2023-06-10T05:51:25;101441.13;;;19.30;100.00
59757;BME280;45631;51.962;5.974;2023-06-10T05:53:54;101439.59;;;19.37;100.00
59757;BME280;45631;51.962;5.974;2023-06-10T05:56:22;101438.84;;;19.45;100.00
59757;BME280;45631;51.962;5.974;2023-06-10T05:58:53;101438.56;;;19.58;100.00
59757;BME280;45631;51.962;5.974;2023-06-10T06:01:21;101439.81;;;19.64;100.00
59757;BME280;45631;51.962;5.974;2023-06-10T06:03:50;101435.56;;;19.71;100.00
59757;BME280;45631;51.962;5.974;2023-06-10T06:06:18;101437.78;;;19.75;100.00
59757;BME280;45631;51.962;5.974;2023-06-10T06:08:47;101440.63;;;19.84;100.00
59757;BME280;45631;51.962;5.974;2023-06-10T06:11:15;101440.72;;;19.92;100.00
59757;BME280;45631;51.962;5.974;2023-06-10T06:13:43;101431.28;;;19.98;100.00
59757;BME280;45631;51.962;5.974;2023-06-10T06:16:13;101433.75;;;20.09;100.00
59757;BME280;45631;51.962;5.974;2023-06-10T06:18:42;101439.03;;;20.19;100.00
59757;BME280;45631;51.962;5.974;2023-06-10T06:21:10;101441.63;;;20.29;100.00
59757;BME280;45631;51.962;5.974;2023-06-10T06:23:38;101436.13;;;20.40;100.00
59757;BME280;45631;51.962;5.974;2023-06-10T06:26:07;101437.34;;;20.46;100.00
59757;BME280;45631;51.962;5.974;2023-06-10T06:28:35;101435.72;;;20.53;100.00
59757;BME280;45631;51.962;5.974;2023-06-10T06:31:07;101430.31;;;20.63;99.02
59757;BME280;45631;51.962;5.974;2023-06-10T06:33:36;101432.50;;;20.77;98.25
59757;BME280;45631;51.962;5.974;2023-06-10T06:36:05;101438.59;;;20.87;98.13
59757;BME280;45631;51.962;5.974;2023-06-10T06:38:36;101444.41;;;21.01;99.44
59757;BME280;45631;51.962;5.974;2023-06-10T06:41:04;101441.03;;;21.17;95.52
59757;BME280;45631;51.962;5.974;2023-06-10T06:43:33;101440.41;;;21.23;94.76
59757;BME280;45631;51.962;5.974;2023-06-10T06:46:01;101443.81;;;21.33;92.09
59757;BME280;45631;51.962;5.974;2023-06-10T06:48:30;101443.22;;;21.39;90.79
59757;BME280;45631;51.962;5.974;2023-06-10T06:51:00;101449.28;;;21.50;92.07
59757;BME280;45631;51.962;5.974;2023-06-10T06:53:28;101440.34;;;21.59;89.92
59757;BME280;45631;51.962;5.974;2023-06-10T06:55:58;101442.75;;;21.70;88.08
59757;BME280;45631;51.962;5.974;2023-06-10T06:58:27;101447.44;;;21.68;90.25
59757;BME280;45631;51.962;5.974;2023-06-10T07:00:55;101441.47;;;21.83;88.55
59757;BME280;45631;51.962;5.974;2023-06-10T07:03:23;101452.75;;;21.94;85.97
59757;BME280;45631;51.962;5.974;2023-06-10T07:05:51;101457.34;;;22.10;88.13
59757;BME280;45631;51.962;5.974;2023-06-10T07:08:21;101452.84;;;22.19;86.13
59757;BME280;45631;51.962;5.974;2023-06-10T07:10:49;101454.22;;;22.32;84.60
59757;BME280;45631;51.962;5.974;2023-06-10T07:13:17;101451.28;;;22.43;87.05
59757;BME280;45631;51.962;5.974;2023-06-10T07:15:45;101447.31;;;22.64;86.46
59757;BME280;45631;51.962;5.974;2023-06-10T07:18:14;101453.69;;;22.79;84.88
59757;BME280;45631;51.962;5.974;2023-06-10T07:20:43;101453.88;;;22.94;83.19
59757;BME280;45631;51.962;5.974;2023-06-10T07:23:11;101452.53;;;23.06;82.32
59757;BME280;45631;51.962;5.974;2023-06-10T07:25:42;101449.53;;;23.18;81.98
59757;BME280;45631;51.962;5.974;2023-06-10T07:28:10;101462.47;;;23.31;80.00
59757;BME280;45631;51.962;5.974;2023-06-10T07:30:38;101457.59;;;23.42;79.21
59757;BME280;45631;51.962;5.974;2023-06-10T07:33:06;101459.22;;;23.52;79.07
59757;BME280;45631;51.962;5.974;2023-06-10T07:35:35;101460.88;;;23.61;76.77
59757;BME280;45631;51.962;5.974;2023-06-10T07:38:03;101452.50;;;23.56;76.15
59757;BME280;45631;51.962;5.974;2023-06-10T07:40:33;101457.72;;;23.66;75.88
59757;BME280;45631;51.962;5.974;2023-06-10T07:43:03;101463.09;;;23.66;76.28
59757;BME280;45631;51.962;5.974;2023-06-10T07:45:31;101460.03;;;23.77;74.33
59757;BME280;45631;51.962;5.974;2023-06-10T07:47:59;101457.31;;;23.93;73.87
59757;BME280;45631;51.962;5.974;2023-06-10T07:50:27;101456.72;;;24.14;74.35
59757;BME280;45631;51.962;5.974;2023-06-10T07:52:55;101453.91;;;24.39;73.77
59757;BME280;45631;51.962;5.974;2023-06-10T07:55:24;101460.69;;;24.67;74.78
59757;BME280;45631;51.962;5.974;2023-06-10T07:57:52;101463.94;;;24.77;71.76
59757;BME280;45631;51.962;5.974;2023-06-10T08:00:25;101458.16;;;24.88;70.90
59757;BME280;45631;51.962;5.974;2023-06-10T08:02:53;101463.31;;;24.98;71.54
59757;BME280;45631;51.962;5.974;2023-06-10T08:05:22;101465.66;;;25.16;71.99
59757;BME280;45631;51.962;5.974;2023-06-10T08:07:51;101463.34;;;25.36;70.70
59757;BME280;45631;51.962;5.974;2023-06-10T08:10:19;101457.97;;;25.51;68.46
59757;BME280;45631;51.962;5.974;2023-06-10T08:12:47;101456.78;;;25.54;67.09
59757;BME280;45631;51.962;5.974;2023-06-10T08:15:15;101454.53;;;25.72;64.40
59757;BME280;45631;51.962;5.974;2023-06-10T08:17:45;101459.53;;;25.90;63.78
59757;BME280;45631;51.962;5.974;2023-06-10T08:20:13;101456.03;;;25.75;63.24
59757;BME280;45631;51.962;5.974;2023-06-10T08:22:42;101454.91;;;25.99;64.76
59757;BME280;45631;51.962;5.974;2023-06-10T08:25:10;101461.13;;;26.14;64.06
59757;BME280;45631;51.962;5.974;2023-06-10T08:27:38;101457.00;;;26.34;61.74
59757;BME280;45631;51.962;5.974;2023-06-10T08:30:07;101461.06;;;26.44;61.42
59757;BME280;45631;51.962;5.974;2023-06-10T08:32:37;101454.53;;;26.54;60.65
59757;BME280;45631;51.962;5.974;2023-06-10T08:35:07;101457.19;;;26.69;60.93
59757;BME280;45631;51.962;5.974;2023-06-10T08:37:36;101464.59;;;26.81;60.72
59757;BME280;45631;51.962;5.974;2023-06-10T08:40:05;101451.09;;;27.03;57.49
59757;BME280;45631;51.962;5.974;2023-06-10T08:42:37;101454.91;;;27.15;56.55
59757;BME280;45631;51.962;5.974;2023-06-10T08:45:07;101459.41;;;27.30;58.16
59757;BME280;45631;51.962;5.974;2023-06-10T08:47:39;101461.38;;;27.43;57.70
59757;BME280;45631;51.962;5.974;2023-06-10T08:50:11;101455.50;;;27.67;56.45
59757;BME280;45631;51.962;5.974;2023-06-10T08:52:42;101452.69;;;27.82;56.28
59757;BME280;45631;51.962;5.974;2023-06-10T08:55:15;101459.28;;;28.08;52.22
59757;BME280;45631;51.962;5.974;2023-06-10T08:57:45;101457.47;;;28.15;53.78
59757;BME280;45631;51.962;5.974;2023-06-10T09:00:15;101463.13;;;28.34;54.59
59757;BME280;45631;51.962;5.974;2023-06-10T09:02:44;101456.09;;;28.46;52.42
59757;BME280;45631;51.962;5.974;2023-06-10T09:05:14;101452.44;;;28.74;52.07
59757;BME280;45631;51.962;5.974;2023-06-10T09:07:45;101458.91;;;28.87;50.68
59757;BME280;45631;51.962;5.974;2023-06-10T09:10:13;101454.53;;;28.86;46.77
59757;BME280;45631;51.962;5.974;2023-06-10T09:12:42;101449.34;;;29.04;49.07
59757;BME280;45631;51.962;5.974;2023-06-10T09:15:10;101454.94;;;29.09;49.30
59757;BME280;45631;51.962;5.974;2023-06-10T09:17:39;101451.41;;;29.15;50.42
59757;BME280;45631;51.962;5.974;2023-06-10T09:20:08;101458.28;;;29.05;48.83
59757;BME280;45631;51.962;5.974;2023-06-10T09:22:38;101453.50;;;29.33;47.45
59757;BME280;45631;51.962;5.974;2023-06-10T09:25:07;101454.75;;;29.31;45.43
59757;BME280;45631;51.962;5.974;2023-06-10T09:27:44;101457.59;;;29.70;45.01
59757;BME280;45631;51.962;5.974;2023-06-10T09:30:26;101455.22;;;30.00;46.09
59757;BME280;45631;51.962;5.974;2023-06-10T09:32:56;101456.44;;;30.11;46.63
59757;BME280;45631;51.962;5.974;2023-06-10T09:35:25;101454.78;;;30.03;44.92
59757;BME280;45631;51.962;5.974;2023-06-10T09:37:56;101454.09;;;30.14;42.91
59757;BME280;45631;51.962;5.974;2023-06-10T09:40:25;101452.25;;;30.15;42.74
59757;BME280;45631;51.962;5.974;2023-06-10T09:42:56;101450.28;;;30.29;44.10
59757;BME280;45631;51.962;5.974;2023-06-10T09:45:29;101452.53;;;30.39;45.07
59757;BME280;45631;51.962;5.974;2023-06-10T09:47:59;101445.22;;;30.46;42.95
59757;BME280;45631;51.962;5.974;2023-06-10T09:50:27;101450.00;;;30.50;42.59
59757;BME280;45631;51.962;5.974;2023-06-10T09:52:57;101449.09;;;30.89;41.92
59757;BME280;45631;51.962;5.974;2023-06-10T09:55:25;101436.28;;;31.02;40.39
59757;BME280;45631;51.962;5.974;2023-06-10T09:57:54;101445.06;;;31.23;41.48
59757;BME280;45631;51.962;5.974;2023-06-10T10:00:22;101444.31;;;31.34;39.44
59757;BME280;45631;51.962;5.974;2023-06-10T10:02:53;101441.41;;;31.11;39.51
59757;BME280;45631;51.962;5.974;2023-06-10T10:05:22;101434.13;;;31.30;39.73
59757;BME280;45631;51.962;5.974;2023-06-10T10:07:51;101448.28;;;31.57;39.03
59757;BME280;45631;51.962;5.974;2023-06-10T10:10:23;101440.22;;;31.69;38.14
59757;BME280;45631;51.962;5.974;2023-06-10T10:12:54;101442.19;;;31.80;37.10
59757;BME280;45631;51.962;5.974;2023-06-10T10:15:25;101431.41;;;32.04;37.03
59757;BME280;45631;51.962;5.974;2023-06-10T10:18:02;101432.03;;;32.06;36.91
59757;BME280;45631;51.962;5.974;2023-06-10T10:20:35;101434.13;;;32.04;35.79
59757;BME280;45631;51.962;5.974;2023-06-10T10:23:06;101435.28;;;32.15;35.64
59757;BME280;45631;51.962;5.974;2023-06-10T10:25:38;101428.09;;;32.02;35.67
59757;BME280;45631;51.962;5.974;2023-06-10T10:28:09;101432.94;;;32.18;34.14
59757;BME280;45631;51.962;5.974;2023-06-10T10:30:40;101427.16;;;32.27;34.90
59757;BME280;45631;51.962;5.974;2023-06-10T10:33:12;101431.13;;;32.43;33.33
59757;BME280;45631;51.962;5.974;2023-06-10T10:35:41;101427.47;;;32.49;33.20
59757;BME280;45631;51.962;5.974;2023-06-10T10:38:10;101426.63;;;32.79;34.73
59757;BME280;45631;51.962;5.974;2023-06-10T10:40:41;101418.47;;;32.91;33.97
59757;BME280;45631;51.962;5.974;2023-06-10T10:43:10;101413.59;;;32.93;33.66
59757;BME280;45631;51.962;5.974;2023-06-10T10:45:39;101418.69;;;33.13;31.82
59757;BME280;45631;51.962;5.974;2023-06-10T10:48:09;101411.94;;;33.03;31.70
59757;BME280;45631;51.962;5.974;2023-06-10T10:50:39;101416.81;;;33.37;29.87
59757;BME280;45631;51.962;5.974;2023-06-10T10:53:08;101411.38;;;33.37;30.63
59757;BME280;45631;51.962;5.974;2023-06-10T10:55:36;101415.41;;;33.34;29.65
59757;BME280;45631;51.962;5.974;2023-06-10T10:58:13;101406.72;;;33.49;29.65
59757;BME280;45631;51.962;5.974;2023-06-10T11:00:46;101413.56;;;33.64;28.14
59757;BME280;45631;51.962;5.974;2023-06-10T11:03:17;101403.25;;;33.66;28.01
59757;BME280;45631;51.962;5.974;2023-06-10T11:05:48;101412.59;;;33.82;27.93
59757;BME280;45631;51.962;5.974;2023-06-10T11:08:45;101411.03;;;33.86;27.76
59757;BME280;45631;51.962;5.974;2023-06-10T11:11:21;101405.59;;;33.74;28.08
59757;BME280;45631;51.962;5.974;2023-06-10T11:14:06;101399.47;;;34.08;28.76
59757;BME280;45631;51.962;5.974;2023-06-10T11:16:40;101398.28;;;34.03;26.56
59757;BME280;45631;51.962;5.974;2023-06-10T11:19:09;101399.19;;;34.38;27.19
59757;BME280;45631;51.962;5.974;2023-06-10T11:21:57;101394.91;;;34.76;27.79
59757;BME280;45631;51.962;5.974;2023-06-10T11:24:26;101393.59;;;34.79;26.06
59757;BME280;45631;51.962;5.974;2023-06-10T11:26:54;101392.78;;;34.44;25.02
59757;BME280;45631;51.962;5.974;2023-06-10T11:29:27;101391.28;;;34.70;24.47
59757;BME280;45631;51.962;5.974;2023-06-10T11:31:55;101387.94;;;34.68;25.42
59757;BME280;45631;51.962;5.974;2023-06-10T11:34:24;101391.03;;;34.55;24.30
59757;BME280;45631;51.962;5.974;2023-06-10T11:36:53;101384.22;;;34.58;25.03
59757;BME280;45631;51.962;5.974;2023-06-10T11:39:24;101389.31;;;34.83;25.83
59757;BME280;45631;51.962;5.974;2023-06-10T11:41:53;101381.66;;;34.51;25.34
59757;BME280;45631;51.962;5.974;2023-06-10T11:44:29;101382.09;;;34.60;25.53
59757;BME280;45631;51.962;5.974;2023-06-10T11:46:59;101391.78;;;34.84;24.88
59757;BME280;45631;51.962;5.974;2023-06-10T11:49:27;101392.19;;;34.93;24.49
59757;BME280;45631;51.962;5.974;2023-06-10T11:51:55;101382.91;;;34.77;24.67
59757;BME280;45631;51.962;5.974;2023-06-10T11:54:23;101376.19;;;35.02;25.82
59757;BME280;45631;51.962;5.974;2023-06-10T11:56:57;101386.63;;;35.27;24.89
59757;BME280;45631;51.962;5.974;2023-06-10T11:59:28;101386.16;;;34.91;25.56
59757;BME280;45631;51.962;5.974;2023-06-10T12:01:57;101391.66;;;35.13;24.51
59757;BME280;45631;51.962;5.974;2023-06-10T12:04:25;101372.97;;;35.05;24.70
59757;BME280;45631;51.962;5.974;2023-06-10T12:06:55;101377.22;;;35.35;24.85
59757;BME280;45631;51.962;5.974;2023-06-10T12:09:24;101381.53;;;35.75;24.33
59757;BME280;45631;51.962;5.974;2023-06-10T12:11:57;101377.19;;;35.79;24.29
59757;BME280;45631;51.962;5.974;2023-06-10T12:17:16;101368.03;;;35.91;23.82
59757;BME280;45631;51.962;5.974;2023-06-10T12:19:47;101369.78;;;36.02;24.44
59757;BME280;45631;51.962;5.974;2023-06-10T12:22:15;101364.41;;;36.12;24.00
59757;BME280;45631;51.962;5.974;2023-06-10T12:24:57;101360.41;;;36.25;24.18
59757;BME280;45631;51.962;5.974;2023-06-10T12:27:28;101354.56;;;36.11;24.29
59757;BME280;45631;51.962;5.974;2023-06-10T12:29:57;101361.28;;;36.31;24.26
59757;BME280;45631;51.962;5.974;2023-06-10T12:32:38;101351.53;;;36.40;23.35
59757;BME280;45631;51.962;5.974;2023-06-10T12:35:08;101355.72;;;36.48;23.83
59757;BME280;45631;51.962;5.974;2023-06-10T12:37:38;101356.78;;;36.47;24.42
59757;BME280;45631;51.962;5.974;2023-06-10T12:40:10;101347.88;;;36.62;24.46
59757;BME280;45631;51.962;5.974;2023-06-10T12:42:39;101347.59;;;36.63;24.15
59757;BME280;45631;51.962;5.974;2023-06-10T12:45:09;101357.94;;;36.24;23.31
59757;BME280;45631;51.962;5.974;2023-06-10T12:47:40;101348.00;;;36.40;23.97
59757;BME280;45631;51.962;5.974;2023-06-10T12:50:09;101344.53;;;36.54;23.94
59757;BME280;45631;51.962;5.974;2023-06-10T12:52:39;101346.09;;;36.45;23.59
59757;BME280;45631;51.962;5.974;2023-06-10T12:55:09;101345.44;;;36.65;24.13
59757;BME280;45631;51.962;5.974;2023-06-10T12:57:47;101346.97;;;36.88;23.51
59757;BME280;45631;51.962;5.974;2023-06-10T13:00:17;101342.97;;;36.69;22.72
59757;BME280;45631;51.962;5.974;2023-06-10T13:02:48;101343.06;;;36.79;24.46